createdAt,value
2023-04-26T00:00:48.373Z,99773.28
2023-04-26T00:03:17.093Z,99767.16
2023-04-26T00:05:45.816Z,99770.47
2023-04-26T00:08:15.922Z,99768.81
2023-04-26T00:10:44.495Z,99774.78
2023-04-26T00:13:13.165Z,99775.31
2023-04-26T00:15:41.846Z,99774.78
2023-04-26T00:18:11.090Z,99770.47
2023-04-26T00:20:40.115Z,99775.19
2023-04-26T00:23:09.527Z,99774.34
2023-04-26T00:25:40.000Z,99778.19
2023-04-26T00:28:08.472Z,99780.00
2023-04-26T00:30:41.580Z,99774.06
2023-04-26T00:33:10.264Z,99778.88
2023-04-26T00:35:39.695Z,99783.84
2023-04-26T00:38:08.907Z,99777.19
2023-04-26T00:40:38.903Z,99779.69
2023-04-26T00:43:08.501Z,99791.47
2023-04-26T00:45:37.515Z,99794.81
2023-04-26T00:48:06.421Z,99789.50
2023-04-26T00:50:36.934Z,99788.41
2023-04-26T00:53:06.405Z,99788.78
2023-04-26T00:55:35.577Z,99807.72
2023-04-26T00:58:05.668Z,99802.72
2023-04-26T01:00:34.477Z,99801.56
2023-04-26T01:03:03.740Z,99796.56
2023-04-26T01:05:32.473Z,99798.38
2023-04-26T01:08:02.930Z,99807.78
2023-04-26T01:10:32.702Z,99803.03
2023-04-26T01:13:01.827Z,99802.50
2023-04-26T01:15:33.714Z,99801.19
2023-04-26T01:18:03.416Z,99809.06
2023-04-26T01:20:32.852Z,99813.34
2023-04-26T01:23:02.811Z,99814.19
2023-04-26T01:25:31.662Z,99816.13
2023-04-26T01:28:00.052Z,99822.19
2023-04-26T01:30:28.711Z,99815.78
2023-04-26T01:32:57.354Z,99821.28
2023-04-26T01:35:25.886Z,99829.53
2023-04-26T01:37:54.522Z,99824.44
2023-04-26T01:40:24.721Z,99826.69
2023-04-26T01:42:53.363Z,99827.13
2023-04-26T01:45:21.741Z,99824.03
2023-04-26T01:47:50.674Z,99831.00
2023-04-26T01:50:19.333Z,99831.47
2023-04-26T01:52:47.811Z,99826.84
2023-04-26T01:55:16.400Z,99828.88
2023-04-26T01:57:46.435Z,99827.69
2023-04-26T02:00:15.345Z,99818.50
2023-04-26T02:02:43.853Z,99824.38
2023-04-26T02:05:13.445Z,99827.56
2023-04-26T02:07:42.015Z,99833.03
2023-04-26T02:10:11.030Z,99836.50
2023-04-26T02:12:39.584Z,99835.56
2023-04-26T02:15:10.752Z,99827.22
2023-04-26T02:17:40.265Z,99832.94
2023-04-26T02:20:11.731Z,99835.09
2023-04-26T02:22:40.157Z,99835.66
2023-04-26T02:25:10.353Z,99834.25
2023-04-26T02:27:39.225Z,99830.56
2023-04-26T02:30:11.701Z,99825.09
2023-04-26T02:32:40.435Z,99829.13
2023-04-26T02:35:09.802Z,99828.19
2023-04-26T02:37:38.700Z,99833.19
2023-04-26T02:40:11.092Z,99836.16
2023-04-26T02:42:39.526Z,99838.44
2023-04-26T02:45:10.179Z,99830.44
2023-04-26T02:47:39.056Z,99833.66
2023-04-26T02:50:10.654Z,99828.66
2023-04-26T02:52:39.244Z,99840.84
2023-04-26T02:55:09.002Z,99838.22
2023-04-26T02:57:37.545Z,99838.22
2023-04-26T03:00:08.313Z,99843.09
2023-04-26T03:02:38.736Z,99838.44
2023-04-26T03:05:08.211Z,99832.25
2023-04-26T03:07:36.902Z,99839.41
2023-04-26T03:10:06.377Z,99845.47
2023-04-26T03:12:35.514Z,99854.78
2023-04-26T03:15:04.760Z,99852.16
2023-04-26T03:17:33.288Z,99860.97
2023-04-26T03:20:04.641Z,99864.44
2023-04-26T03:22:33.060Z,99860.13
2023-04-26T03:25:01.948Z,99862.03
2023-04-26T03:27:30.454Z,99859.81
2023-04-26T03:29:59.152Z,99870.41
2023-04-26T03:32:27.756Z,99862.06
2023-04-26T03:34:56.381Z,99868.41
2023-04-26T03:37:26.362Z,99867.78
2023-04-26T03:39:54.848Z,99861.25
2023-04-26T03:42:23.389Z,99866.84
2023-04-26T03:44:51.887Z,99877.31
2023-04-26T03:47:20.525Z,99879.94
2023-04-26T03:49:48.920Z,99880.66
2023-04-26T03:52:17.380Z,99883.75
2023-04-26T03:54:47.254Z,99875.41
2023-04-26T03:57:15.791Z,99873.75
2023-04-26T03:59:44.313Z,99878.50
2023-04-26T04:02:13.809Z,99888.28
2023-04-26T04:04:42.574Z,99888.28
2023-04-26T04:07:11.157Z,99889.47
2023-04-26T04:09:39.662Z,99889.72
2023-04-26T04:12:09.580Z,99907.34
2023-04-26T04:14:37.974Z,99900.44
2023-04-26T04:17:06.696Z,99907.25
2023-04-26T04:19:35.297Z,99901.88
2023-04-26T04:22:03.826Z,99910.91
2023-04-26T04:24:34.375Z,99920.47
2023-04-26T04:27:03.651Z,99916.88
2023-04-26T04:29:33.940Z,99899.25
2023-04-26T04:32:02.485Z,99926.19
2023-04-26T04:34:31.322Z,99919.66
2023-04-26T04:36:59.805Z,99916.53
2023-04-26T04:39:28.254Z,99928.34
2023-04-26T04:41:56.926Z,99913.44
2023-04-26T04:44:27.267Z,99926.44
2023-04-26T04:46:58.779Z,99929.78
2023-04-26T04:49:27.459Z,99931.44
2023-04-26T04:51:56.157Z,99944.44
2023-04-26T04:54:25.041Z,99932.28
2023-04-26T04:56:53.680Z,99938.34
2023-04-26T04:59:22.063Z,99941.44
2023-04-26T05:01:50.900Z,99933.59
2023-04-26T05:04:21.410Z,99932.41
2023-04-26T05:06:50.139Z,99944.81
2023-04-26T05:09:18.524Z,99943.97
2023-04-26T05:11:47.069Z,99947.06
2023-04-26T05:14:15.533Z,99950.16
2023-04-26T05:16:44.134Z,99952.44
2023-04-26T05:19:13.629Z,99943.97
2023-04-26T05:21:43.624Z,99952.19
2023-04-26T05:24:12.166Z,99945.53
2023-04-26T05:26:40.881Z,99963.88
2023-04-26T05:29:09.312Z,99958.97
2023-04-26T05:31:38.308Z,99966.59
2023-04-26T05:34:06.851Z,99958.38
2023-04-26T05:36:35.275Z,99970.06
2023-04-26T05:39:08.845Z,99971.09
2023-04-26T05:41:37.770Z,99966.56
2023-04-26T05:44:06.502Z,99975.06
2023-04-26T05:46:35.855Z,99962.28
2023-04-26T05:49:04.470Z,99972.44
2023-04-26T05:51:32.909Z,99965.25
2023-04-26T05:54:01.438Z,99967.38
2023-04-26T05:56:31.600Z,99973.81
2023-04-26T05:59:00.049Z,99978.97
2023-04-26T06:01:28.643Z,99994.34
2023-04-26T06:04:00.252Z,99982.28
2023-04-26T06:06:29.752Z,99984.44
2023-04-26T06:08:58.648Z,99983.56
2023-04-26T06:11:27.143Z,99976.41
2023-04-26T06:13:57.217Z,99979.47
2023-04-26T06:16:25.706Z,99994.50
2023-04-26T06:18:54.299Z,99987.53
2023-04-26T06:21:22.779Z,99985.56
2023-04-26T06:23:51.829Z,99982.16
2023-04-26T06:26:20.719Z,99993.13
2023-04-26T06:28:49.242Z,99997.13
2023-04-26T06:31:20.108Z,99984.78
2023-04-26T06:33:48.734Z,99997.22
2023-04-26T06:36:17.216Z,99987.09
2023-04-26T06:38:45.777Z,99997.31
2023-04-26T06:41:14.281Z,99991.66
2023-04-26T06:43:42.777Z,99990.06
2023-04-26T06:46:11.269Z,99992.44
2023-04-26T06:48:41.419Z,99985.59
2023-04-26T06:51:10.172Z,99988.28
2023-04-26T06:53:38.872Z,99989.50
2023-04-26T06:56:07.935Z,99992.44
2023-04-26T06:58:36.636Z,99995.53
2023-04-26T07:01:06.679Z,100000.66
2023-04-26T07:03:35.212Z,99988.50
2023-04-26T07:06:05.403Z,100002.56
2023-04-26T07:08:33.772Z,100000.53
2023-04-26T07:11:02.219Z,100004.22
2023-04-26T07:13:31.815Z,100001.28
2023-04-26T07:16:00.271Z,100008.94
2023-04-26T07:18:28.818Z,99995.81
2023-04-26T07:20:57.244Z,99997.09
2023-04-26T07:23:27.316Z,100007.88
2023-04-26T07:25:56.392Z,99992.91
2023-04-26T07:28:26.665Z,100016.59
2023-04-26T07:30:55.481Z,99992.63
2023-04-26T07:33:23.976Z,100008.59
2023-04-26T07:35:56.223Z,99999.19
2023-04-26T07:38:24.976Z,100015.31
2023-04-26T07:40:55.086Z,100009.41
2023-04-26T07:43:24.307Z,100002.34
2023-04-26T07:45:52.826Z,100007.91
2023-04-26T07:48:21.381Z,100001.50
2023-04-26T07:50:49.801Z,100000.41
2023-04-26T07:53:18.748Z,100012.63
2023-04-26T07:55:47.639Z,99999.56
2023-04-26T07:58:17.554Z,100016.81
2023-04-26T08:00:46.019Z,100019.16
2023-04-26T08:03:17.050Z,100013.75
2023-04-26T08:05:46.152Z,100015.13
2023-04-26T08:08:15.768Z,100021.22
2023-04-26T08:10:45.059Z,100022.91
2023-04-26T08:13:13.629Z,100019.63
2023-04-26T08:15:43.741Z,100021.84
2023-04-26T08:18:12.784Z,100021.03
2023-04-26T08:20:41.326Z,100028.41
2023-04-26T08:23:09.888Z,100026.59
2023-04-26T08:25:38.689Z,100023.13
2023-04-26T08:28:08.914Z,100036.91
2023-04-26T08:30:37.537Z,100027.16
2023-04-26T08:33:07.715Z,100039.41
2023-04-26T08:35:36.420Z,100043.94
2023-04-26T08:38:05.013Z,100034.94
2023-04-26T08:40:34.110Z,100038.84
2023-04-26T08:43:02.652Z,100042.41
2023-04-26T08:45:35.378Z,100035.19
2023-04-26T08:48:09.550Z,100036.88
2023-04-26T08:50:40.341Z,100021.06
2023-04-26T08:53:10.363Z,100040.22
2023-04-26T08:55:40.015Z,100047.44
2023-04-26T08:58:11.631Z,100042.97
2023-04-26T09:00:40.526Z,100046.31
2023-04-26T09:03:10.782Z,100047.03
2023-04-26T09:05:44.351Z,100042.38
2023-04-26T09:08:17.744Z,100043.47
2023-04-26T09:10:46.952Z,100039.63
2023-04-26T09:13:18.479Z,100049.63
2023-04-26T09:15:53.420Z,100042.28
2023-04-26T09:18:24.596Z,100051.88
2023-04-26T09:21:04.988Z,100039.34
2023-04-26T09:23:34.054Z,100044.25
2023-04-26T09:26:19.779Z,100040.81
2023-04-26T09:28:48.728Z,100025.06
2023-04-26T09:31:39.150Z,100042.47
2023-04-26T09:34:11.419Z,100062.78
2023-04-26T09:36:50.723Z,100055.78
2023-04-26T09:39:33.328Z,100066.75
2023-04-26T09:42:02.320Z,100058.97
2023-04-26T09:44:32.947Z,100051.72
2023-04-26T09:47:03.457Z,100057.25
2023-04-26T09:49:35.763Z,100045.47
2023-04-26T09:52:08.027Z,100036.31
2023-04-26T09:54:49.436Z,100033.00
2023-04-26T09:57:20.306Z,100037.38
2023-04-26T09:59:54.230Z,100030.72
2023-04-26T10:02:26.876Z,100027.69
2023-04-26T10:05:00.241Z,100025.06
2023-04-26T10:07:29.696Z,100039.28
2023-04-26T10:10:00.516Z,100037.38
2023-04-26T10:12:30.218Z,100032.75
2023-04-26T10:14:59.339Z,100031.03
2023-04-26T10:17:30.036Z,100039.91
2023-04-26T10:20:02.329Z,100036.03
2023-04-26T10:22:35.629Z,100039.34
2023-04-26T10:25:04.712Z,100034.00
2023-04-26T10:27:53.149Z,100038.97
2023-04-26T10:30:24.725Z,100036.25
2023-04-26T10:33:16.925Z,100039.81
2023-04-26T10:36:07.083Z,100046.91
2023-04-26T10:38:37.347Z,100048.50
2023-04-26T10:41:34.740Z,100047.97
2023-04-26T10:44:45.965Z,100045.03
2023-04-26T10:47:28.220Z,100053.88
2023-04-26T10:50:08.619Z,100042.91
2023-04-26T10:53:08.130Z,100058.09
2023-04-26T10:55:42.017Z,100064.34
2023-04-26T10:58:29.165Z,100067.69
2023-04-26T11:01:18.016Z,100054.97
2023-04-26T11:04:06.565Z,100047.03
2023-04-26T11:06:49.862Z,100043.25
2023-04-26T11:09:40.013Z,100051.00
2023-04-26T11:12:12.824Z,100041.31
2023-04-26T11:14:45.827Z,100043.16
2023-04-26T11:17:14.566Z,100048.94
2023-04-26T11:19:43.251Z,100049.03
2023-04-26T11:22:11.788Z,100052.44
2023-04-26T11:24:42.009Z,100041.03
2023-04-26T11:27:11.581Z,100047.75
2023-04-26T11:29:40.466Z,100042.38
2023-04-26T11:32:09.570Z,100048.66
2023-04-26T11:34:39.573Z,100056.66
2023-04-26T11:37:08.678Z,100058.84
2023-04-26T11:39:38.520Z,100051.53
2023-04-26T11:42:27.601Z,100048.19
2023-04-26T11:45:00.177Z,100045.72
2023-04-26T11:47:30.997Z,100049.78
2023-04-26T11:50:00.233Z,100057.88
2023-04-26T11:52:29.783Z,100053.66
2023-04-26T11:55:06.254Z,100068.53
2023-04-26T11:57:36.752Z,100050.25
2023-04-26T12:00:14.941Z,100061.81
2023-04-26T12:02:47.260Z,100054.84
2023-04-26T12:05:31.799Z,100054.84
2023-04-26T12:08:01.793Z,100046.28
2023-04-26T12:10:33.700Z,100041.63
2023-04-26T12:13:03.979Z,100031.50
2023-04-26T12:15:35.006Z,100057.63
2023-04-26T12:18:11.248Z,100041.91
2023-04-26T12:20:41.214Z,100038.00
2023-04-26T12:23:14.912Z,100038.91
2023-04-26T12:25:53.163Z,100035.59
2023-04-26T12:28:24.642Z,100043.94
2023-04-26T12:30:53.974Z,100033.00
2023-04-26T12:33:23.405Z,100049.38
2023-04-26T12:35:52.295Z,100054.38
2023-04-26T12:38:21.198Z,100049.13
2023-04-26T12:40:49.684Z,100048.16
2023-04-26T12:43:19.790Z,100041.03
2023-04-26T12:45:49.985Z,100048.91
2023-04-26T12:48:18.625Z,100049.88
2023-04-26T12:50:47.314Z,100060.66
2023-04-26T12:53:15.792Z,100052.53
2023-04-26T12:55:45.425Z,100066.88
2023-04-26T12:58:14.116Z,100053.13
2023-04-26T13:00:44.471Z,100062.28
2023-04-26T13:03:15.200Z,100067.59
2023-04-26T13:05:44.264Z,100072.34
2023-04-26T13:08:13.143Z,100081.84
2023-04-26T13:10:48.974Z,100085.88
2023-04-26T13:13:17.423Z,100077.63
2023-04-26T13:15:46.230Z,100078.19
2023-04-26T13:18:18.279Z,100072.09
2023-04-26T13:20:48.180Z,100068.13
2023-04-26T13:23:16.912Z,100065.91
2023-04-26T13:25:45.564Z,100064.19
2023-04-26T13:28:14.530Z,100055.94
2023-04-26T13:30:43.266Z,100069.91
2023-04-26T13:33:11.835Z,100070.63
2023-04-26T13:35:41.822Z,100068.63
2023-04-26T13:38:10.301Z,100061.59
2023-04-26T13:40:40.851Z,100072.19
2023-04-26T13:43:09.324Z,100080.97
2023-04-26T13:45:37.865Z,100077.50
2023-04-26T13:48:06.627Z,100074.22
2023-04-26T13:50:36.985Z,100083.31
2023-04-26T13:53:07.015Z,100064.25
2023-04-26T13:55:35.788Z,100083.41
2023-04-26T13:58:04.317Z,100094.03
2023-04-26T14:00:32.874Z,100086.53
2023-04-26T14:03:01.719Z,100088.09
2023-04-26T14:05:30.566Z,100095.88
2023-04-26T14:07:59.512Z,100101.81
2023-04-26T14:10:29.896Z,100095.53
2023-04-26T14:12:58.397Z,100116.25
2023-04-26T14:15:27.005Z,100099.69
2023-04-26T14:17:55.498Z,100109.03
2023-04-26T14:20:24.071Z,100111.69
2023-04-26T14:22:52.648Z,100112.88
2023-04-26T14:25:21.210Z,100107.13
2023-04-26T14:27:53.040Z,100101.66
2023-04-26T14:30:22.305Z,100105.78
2023-04-26T14:32:50.982Z,100105.47
2023-04-26T14:35:19.582Z,100114.78
2023-04-26T14:37:48.069Z,100100.03
2023-04-26T14:40:16.681Z,100101.72
2023-04-26T14:42:46.268Z,100096.09
2023-04-26T14:45:16.712Z,100109.00
2023-04-26T14:47:45.191Z,100115.34
2023-04-26T14:50:14.600Z,100109.47
2023-04-26T14:52:43.151Z,100107.50
2023-04-26T14:55:12.287Z,100111.81
2023-04-26T14:57:42.471Z,100117.59
2023-04-26T15:00:15.432Z,100121.94
2023-04-26T15:02:46.007Z,100112.88
2023-04-26T15:05:15.259Z,100123.09
2023-04-26T15:07:44.060Z,100128.03
2023-04-26T15:10:12.722Z,100112.94
2023-04-26T15:12:41.298Z,100121.56
2023-04-26T15:15:10.455Z,100117.53
2023-04-26T15:17:39.077Z,100121.31
2023-04-26T15:20:10.917Z,100120.91
2023-04-26T15:22:39.978Z,100118.41
2023-04-26T15:25:10.961Z,100137.84
2023-04-26T15:27:39.842Z,100136.22
2023-04-26T15:30:09.735Z,100135.91
2023-04-26T15:32:38.507Z,100142.00
2023-04-26T15:35:09.561Z,100138.25
2023-04-26T15:37:39.056Z,100142.69
2023-04-26T15:40:10.713Z,100142.69
2023-04-26T15:42:40.022Z,100146.53
2023-04-26T15:45:09.576Z,100140.66
2023-04-26T15:47:38.713Z,100144.97
2023-04-26T15:50:09.937Z,100148.91
2023-04-26T15:52:39.494Z,100151.47
2023-04-26T15:55:10.769Z,100145.03
2023-04-26T15:57:39.221Z,100145.19
2023-04-26T16:00:10.323Z,100146.31
2023-04-26T16:02:39.212Z,100134.16
2023-04-26T16:05:10.243Z,100144.13
2023-04-26T16:07:39.420Z,100150.66
2023-04-26T16:10:09.762Z,100142.69
2023-04-26T16:12:39.983Z,100153.97
2023-04-26T16:15:10.145Z,100146.47
2023-04-26T16:17:39.486Z,100149.66
2023-04-26T16:20:10.876Z,100144.34
2023-04-26T16:22:39.397Z,100151.41
2023-04-26T16:25:09.181Z,100143.06
2023-04-26T16:27:37.855Z,100154.97
2023-04-26T16:30:07.174Z,100145.72
2023-04-26T16:32:35.705Z,100156.25
2023-04-26T16:35:04.882Z,100151.47
2023-04-26T16:37:34.820Z,100156.91
2023-04-26T16:40:05.322Z,100159.84
2023-04-26T16:42:33.895Z,100159.47
2023-04-26T16:45:02.469Z,100158.84
2023-04-26T16:47:31.255Z,100159.03
2023-04-26T16:50:00.230Z,100151.03
2023-04-26T16:52:28.906Z,100165.88
2023-04-26T16:55:02.278Z,100166.41
2023-04-26T16:57:30.764Z,100149.22
2023-04-26T16:59:59.880Z,100159.56
2023-04-26T17:02:28.608Z,100171.00
2023-04-26T17:04:59.111Z,100177.72
2023-04-26T17:07:27.634Z,100171.81
2023-04-26T17:09:56.149Z,100181.31
2023-04-26T17:12:26.269Z,100186.34
2023-04-26T17:14:54.775Z,100171.16
2023-04-26T17:17:23.360Z,100181.25
2023-04-26T17:19:52.030Z,100180.47
2023-04-26T17:22:21.106Z,100188.34
2023-04-26T17:24:49.688Z,100198.06
2023-04-26T17:27:18.236Z,100195.38
2023-04-26T17:29:48.212Z,100201.88
2023-04-26T17:32:16.946Z,100189.34
2023-04-26T17:34:45.825Z,100208.13
2023-04-26T17:37:14.400Z,100217.19
2023-04-26T17:39:43.277Z,100216.38
2023-04-26T17:42:12.072Z,100221.34
2023-04-26T17:44:41.929Z,100221.91
2023-04-26T17:47:12.114Z,100237.63
2023-04-26T17:49:40.568Z,100232.47
2023-04-26T17:52:09.091Z,100231.09
2023-04-26T17:54:37.520Z,100225.53
2023-04-26T17:57:07.964Z,100227.78
2023-04-26T17:59:36.489Z,100225.97
2023-04-26T18:02:05.125Z,100229.97
2023-04-26T18:04:35.756Z,100233.31
2023-04-26T18:07:04.935Z,100230.53
2023-04-26T18:09:33.598Z,100232.75
2023-04-26T18:12:02.978Z,100230.94
2023-04-26T18:14:31.516Z,100236.06
2023-04-26T18:17:00.100Z,100247.50
2023-04-26T18:19:28.788Z,100238.03
2023-04-26T18:21:58.692Z,100235.69
2023-04-26T18:24:27.401Z,100239.47
2023-04-26T18:26:56.140Z,100243.91
2023-04-26T18:29:24.661Z,100238.34
2023-04-26T18:31:53.393Z,100236.25
2023-04-26T18:34:22.054Z,100246.41
2023-04-26T18:36:50.601Z,100249.75
2023-04-26T18:39:20.467Z,100246.41
2023-04-26T18:41:48.958Z,100248.09
2023-04-26T18:44:17.335Z,100261.19
2023-04-26T18:46:47.065Z,100252.84
2023-04-26T18:49:15.799Z,100248.13
2023-04-26T18:51:45.544Z,100254.22
2023-04-26T18:54:14.154Z,100259.50
2023-04-26T18:56:44.297Z,100259.66
2023-04-26T18:59:13.241Z,100260.63
2023-04-26T19:01:41.856Z,100260.34
2023-04-26T19:04:11.316Z,100254.66
2023-04-26T19:06:41.893Z,100262.59
2023-04-26T19:09:11.958Z,100250.63
2023-04-26T19:11:40.634Z,100254.09
2023-04-26T19:14:10.836Z,100272.88
2023-04-26T19:16:39.772Z,100269.53
2023-04-26T19:19:08.168Z,100268.69
2023-04-26T19:21:36.907Z,100263.69
2023-04-26T19:24:05.987Z,100271.91
2023-04-26T19:26:34.564Z,100279.13
2023-04-26T19:29:05.391Z,100273.69
2023-04-26T19:31:36.660Z,100267.72
2023-04-26T19:34:05.600Z,100272.88
2023-04-26T19:36:34.980Z,100267.88
2023-04-26T19:39:04.810Z,100277.59
2023-04-26T19:41:33.296Z,100274.25
2023-04-26T19:44:02.073Z,100273.84
2023-04-26T19:46:30.599Z,100273.13
2023-04-26T19:49:00.517Z,100279.56
2023-04-26T19:51:29.067Z,100268.00
2023-04-26T19:53:57.642Z,100273.00
2023-04-26T19:56:26.130Z,100278.69
2023-04-26T19:58:54.608Z,100281.19
2023-04-26T20:01:23.099Z,100276.88
2023-04-26T20:03:51.583Z,100283.13
2023-04-26T20:06:21.615Z,100288.69
2023-04-26T20:08:50.170Z,100278.41
2023-04-26T20:11:19.394Z,100281.16
2023-04-26T20:13:48.142Z,100281.31
2023-04-26T20:16:16.967Z,100283.25
2023-04-26T20:18:45.557Z,100289.63
2023-04-26T20:21:14.114Z,100280.59
2023-04-26T20:23:44.131Z,100287.97
2023-04-26T20:26:12.566Z,100291.97
2023-04-26T20:28:43.868Z,100289.19
2023-04-26T20:31:12.561Z,100275.13
2023-04-26T20:33:41.152Z,100285.69
2023-04-26T20:36:09.891Z,100294.69
2023-04-26T20:38:39.182Z,100291.38
2023-04-26T20:41:09.417Z,100292.47
2023-04-26T20:43:39.676Z,100290.94
2023-04-26T20:46:08.415Z,100293.84
2023-04-26T20:48:36.981Z,100300.94
2023-04-26T20:51:05.604Z,100298.81
2023-04-26T20:53:34.094Z,100303.25
2023-04-26T20:56:02.618Z,100299.09
2023-04-26T20:58:32.671Z,100302.69
2023-04-26T21:01:01.219Z,100307.97
2023-04-26T21:03:30.000Z,100294.34
2023-04-26T21:05:58.725Z,100308.25
2023-04-26T21:08:27.160Z,100305.00
2023-04-26T21:10:55.855Z,100313.91
2023-04-26T21:13:24.293Z,100303.50
2023-04-26T21:15:56.556Z,100305.69
2023-04-26T21:18:25.125Z,100314.56
2023-04-26T21:20:53.630Z,100309.69
2023-04-26T21:23:22.392Z,100305.47
2023-04-26T21:25:51.665Z,100296.41
2023-04-26T21:28:20.276Z,100313.91
2023-04-26T21:30:48.857Z,100324.47
2023-04-26T21:33:19.125Z,100310.13
2023-04-26T21:35:47.654Z,100316.63
2023-04-26T21:38:16.177Z,100326.91
2023-04-26T21:40:44.705Z,100322.75
2023-04-26T21:43:15.700Z,100328.84
2023-04-26T21:45:44.194Z,100321.34
2023-04-26T21:48:12.610Z,100327.69
2023-04-26T21:50:42.529Z,100324.50
2023-04-26T21:53:11.128Z,100329.03
2023-04-26T21:55:39.622Z,100336.94
2023-04-26T21:58:08.215Z,100332.03
2023-04-26T22:00:36.976Z,100342.72
2023-04-26T22:03:05.586Z,100340.72
2023-04-26T22:05:34.228Z,100346.84
2023-04-26T22:08:04.109Z,100343.59
2023-04-26T22:10:32.625Z,100336.59
2023-04-26T22:13:01.161Z,100351.22
2023-04-26T22:15:30.063Z,100357.56
2023-04-26T22:17:58.568Z,100358.66
2023-04-26T22:20:27.147Z,100360.69
2023-04-26T22:22:55.981Z,100355.09
2023-04-26T22:25:26.970Z,100366.47
2023-04-26T22:27:55.882Z,100362.28
2023-04-26T22:30:25.985Z,100353.94
2023-04-26T22:32:55.820Z,100360.03
2023-04-26T22:35:25.490Z,100361.94
2023-04-26T22:37:54.324Z,100362.19
2023-04-26T22:40:23.060Z,100355.75
2023-04-26T22:42:53.042Z,100362.69
2023-04-26T22:45:21.717Z,100361.53
2023-04-26T22:47:50.235Z,100345.59
2023-04-26T22:50:18.748Z,100362.72
2023-04-26T22:52:47.491Z,100370.75
2023-04-26T22:55:16.245Z,100371.84
2023-04-26T22:57:44.628Z,100374.72
2023-04-26T23:00:16.215Z,100364.53
2023-04-26T23:02:44.804Z,100369.94
2023-04-26T23:05:13.512Z,100371.97
2023-04-26T23:07:42.039Z,100364.31
2023-04-26T23:10:11.093Z,100374.28
2023-04-26T23:12:40.878Z,100369.25
2023-04-26T23:15:10.274Z,100375.47
2023-04-26T23:17:42.004Z,100379.16
2023-04-26T23:20:13.177Z,100382.19
2023-04-26T23:22:41.871Z,100382.53
2023-04-26T23:25:11.392Z,100385.41
2023-04-26T23:27:40.196Z,100386.50
2023-04-26T23:30:16.383Z,100379.81
2023-04-26T23:32:46.360Z,100385.06
2023-04-26T23:35:15.076Z,100388.75
2023-04-26T23:37:43.560Z,100387.22
2023-04-26T23:40:12.733Z,100387.47
2023-04-26T23:42:41.540Z,100386.97
2023-04-26T23:45:11.790Z,100392.34
2023-04-26T23:47:40.906Z,100396.06
2023-04-26T23:50:11.417Z,100390.28
2023-04-26T23:52:39.844Z,100389.81
2023-04-26T23:55:10.015Z,100392.69
2023-04-26T23:57:38.436Z,100393.63
